Flight Track Log - Related Links

Times and Time Zones

All times are in EDT time to prevent confusion due to time zone crossing. See the KAL61 flight status page for this flight to view local times or setup timezone preferences in your user account.

Time Position Orientation Groundspeed Altitude Reporting Facility
EDT Latitude Longitude Course Direction KTS MPH feet Rate Location/Type
Wed 10:09:08 PM 33.9333 -118.4517 239° Southwest 193 222 1,700  Level Los Angeles Center
Wed 10:10:09 PM 33.8994 -118.5200 239° Southwest 244 281 2,500 1,366 Climbing Los Angeles Center
Wed 10:11:11 PM 33.8344 -118.5792 217° Southwest 307 353 4,500 2,371 Climbing Los Angeles Center
Wed 10:12:13 PM 33.7419 -118.5706 176° South 310 357 7,400 2,634 Climbing Los Angeles Center
Wed 10:13:14 PM 33.6822 -118.5019 136° Southeast 306 352 9,900 2,341 Climbing Los Angeles Center
Wed 10:14:16 PM 33.6558 -118.3919 106° East 319 367 12,200 2,081 Climbing Los Angeles Center
Wed 10:15:18 PM 33.6344 -118.2889 104° East 332 382 14,200 1,707 Climbing Los Angeles Center
Wed 10:16:19 PM 33.6072 -118.1728 106° East 357 411 15,700 1,610 Climbing Los Angeles Center
Wed 10:17:21 PM 33.5703 -118.0450 109° East 406 467 17,500 1,790 Climbing Los Angeles Center
Wed 10:18:23 PM 33.5317 -117.9125 109° East 421 484 19,400 1,854 Climbing Los Angeles Center
Wed 10:19:24 PM 33.4917 -117.7756 109° East 434 499 21,300 1,805 Climbing Los Angeles Center
Wed 10:20:26 PM 33.4494 -117.6356 110° East 446 513 23,100 1,887 Climbing Los Angeles Center
Wed 10:21:28 PM 33.3997 -117.4619 109° East 457 526 25,200 1,839 Climbing Los Angeles Center
Wed 10:22:30 PM 33.3556 -117.3144 110° East 467 537 26,900 1,561 Climbing Los Angeles Center
Wed 10:23:31 PM 33.3106 -117.1625 109° East 480 552 28,400 1,415 Climbing Los Angeles Center
Wed 10:24:33 PM 33.2647 -117.0078 109° East 488 562 29,800 1,210 Climbing Los Angeles Center
Wed 10:25:35 PM 33.2194 -116.8500 109° East 496 571 30,900 1,317 Climbing Los Angeles Center
Wed 10:26:36 PM 33.1731 -116.6900 109° East 504 580 32,500 1,024 Climbing Los Angeles Center
Wed 10:27:38 PM 33.1161 -116.5361 114° Southeast 504 580 33,000 242 Climbing Los Angeles Center
Wed 10:28:40 PM 33.0428 -116.3919 121° Southeast 502 578 33,000  Level Los Angeles Center
Wed 10:29:41 PM 32.9664 -116.2433 121° Southeast 511 588 33,000 -49 Level Los Angeles Center
Wed 10:30:43 PM 32.8728 -116.0711 123° Southeast 510 587 32,900  Descending Los Angeles Center
Wed 10:31:45 PM 32.7972 -115.9289 122° Southeast 508 585 33,000  Climbing Los Angeles Center
Wed 10:32:47 PM 32.7242 -115.7869 121° Southeast 503 579 32,900  Descending Los Angeles Center
Wed 10:33:48 PM 32.6489 -115.6461 122° Southeast 506 582 33,000 44 Climbing Los Angeles Center
Wed 10:35:02 PM 32.5756 -115.5047 122° Southeast 504 580 33,000  Level Los Angeles Center
Wed 10:37:00 PM 32.4214 -115.2432 125° Southeast  Level FlightAware Approximate
Wed 10:44:00 PM 31.8685 -114.3196 125° Southeast  Level FlightAware Approximate
Wed 10:45:00 PM 31.7890 -114.1885 126° Southeast  Level FlightAware Approximate
Wed 10:46:00 PM 31.7094 -114.0577 126° Southeast  Level FlightAware Approximate
Wed 10:47:00 PM 31.6296 -113.9271 126° Southeast  Level FlightAware Approximate
Wed 10:48:00 PM 31.5496 -113.7968 126° Southeast  Level FlightAware Approximate
Wed 10:49:00 PM 31.4696 -113.6666 126° Southeast  Level FlightAware Approximate
Wed 10:50:00 PM 31.3894 -113.5367 126° Southeast  Level FlightAware Approximate
Wed 10:51:00 PM 31.3168 -113.4008 120° Southeast  Level FlightAware Approximate
Wed 10:52:00 PM 31.2474 -113.2629 120° Southeast  Level FlightAware Approximate
Wed 10:53:00 PM 31.1777 -113.1251 121° Southeast  Level FlightAware Approximate
Wed 10:54:00 PM 31.1080 -112.9876 121° Southeast  Level FlightAware Approximate
Wed 10:55:00 PM 31.0381 -112.8503 121° Southeast  Level FlightAware Approximate
Wed 10:56:00 PM 30.9680 -112.7132 121° Southeast  Level FlightAware Approximate
Wed 10:57:00 PM 30.8978 -112.5763 121° Southeast  Level FlightAware Approximate
Wed 10:58:00 PM 30.8265 -112.4403 122° Southeast  Level FlightAware Approximate
Wed 10:59:00 PM 30.7529 -112.3060 122° Southeast  Level FlightAware Approximate
Wed 11:00:00 PM 30.6792 -112.1719 123° Southeast  Level FlightAware Approximate
Wed 11:01:00 PM 30.6054 -112.0380 123° Southeast  Level FlightAware Approximate
Wed 11:02:00 PM 30.5315 -111.9043 123° Southeast  Level FlightAware Approximate
Wed 11:03:00 PM 30.4573 -111.7709 123° Southeast  Level FlightAware Approximate
Wed 11:04:00 PM 30.3831 -111.6376 123° Southeast  Level FlightAware Approximate
Wed 11:05:00 PM 30.3088 -111.5045 123° Southeast  Level FlightAware Approximate
Wed 11:06:00 PM 30.2342 -111.3716 123° Southeast  Level FlightAware Approximate
Wed 11:07:00 PM 30.1596 -111.2390 123° Southeast  Level FlightAware Approximate
Wed 11:08:00 PM 30.0850 -111.1064 123° Southeast  Level FlightAware Approximate
Wed 11:09:00 PM 30.0108 -110.9736 123° Southeast  Level FlightAware Approximate
Wed 11:10:00 PM 29.9364 -110.8410 123° Southeast  Level FlightAware Approximate
Wed 11:11:00 PM 29.8619 -110.7086 123° Southeast  Level FlightAware Approximate
Wed 11:12:00 PM 29.7873 -110.5764 123° Southeast  Level FlightAware Approximate
Wed 11:13:00 PM 29.7126 -110.4444 123° Southeast  Level FlightAware Approximate
Wed 11:14:00 PM 29.6377 -110.3126 123° Southeast  Level FlightAware Approximate
Wed 11:15:00 PM 29.5627 -110.1810 123° Southeast  Level FlightAware Approximate
Wed 11:16:00 PM 29.4876 -110.0496 123° Southeast  Level FlightAware Approximate
Wed 11:17:00 PM 29.4123 -109.9184 123° Southeast  Level FlightAware Approximate
Wed 11:18:00 PM 29.3369 -109.7874 123° Southeast  Level FlightAware Approximate
Wed 11:19:00 PM 29.2614 -109.6566 123° Southeast  Level FlightAware Approximate
Wed 11:20:00 PM 29.1857 -109.5259 124° Southeast  Level FlightAware Approximate
Wed 11:21:00 PM 29.1100 -109.3955 124° Southeast  Level FlightAware Approximate
Wed 11:22:00 PM 29.0341 -109.2653 124° Southeast  Level FlightAware Approximate
Wed 11:23:00 PM 28.9580 -109.1352 124° Southeast  Level FlightAware Approximate
Wed 11:24:00 PM 28.8819 -109.0053 124° Southeast  Level FlightAware Approximate
Wed 11:25:00 PM 28.8056 -108.8757 124° Southeast  Level FlightAware Approximate
Wed 11:26:00 PM 28.7292 -108.7462 124° Southeast  Level FlightAware Approximate
Wed 11:27:00 PM 28.6527 -108.6169 124° Southeast  Level FlightAware Approximate
Wed 11:28:00 PM 28.5762 -108.4877 124° Southeast  Level FlightAware Approximate
Wed 11:29:00 PM 28.5005 -108.3579 124° Southeast  Level FlightAware Approximate
Wed 11:30:00 PM 28.4247 -108.2284 124° Southeast  Level FlightAware Approximate
Wed 11:31:00 PM 28.3488 -108.0990 124° Southeast  Level FlightAware Approximate
Wed 11:32:00 PM 28.2728 -107.9698 124° Southeast  Level FlightAware Approximate
Wed 11:33:00 PM 28.1966 -107.8408 124° Southeast  Level FlightAware Approximate
Wed 11:34:00 PM 28.1203 -107.7119 124° Southeast  Level FlightAware Approximate
Wed 11:35:00 PM 28.0440 -107.5833 124° Southeast  Level FlightAware Approximate
Wed 11:36:00 PM 27.9674 -107.4548 124° Southeast  Level FlightAware Approximate
Wed 11:37:00 PM 27.8908 -107.3265 124° Southeast  Level FlightAware Approximate
Wed 11:38:00 PM 27.8141 -107.1984 124° Southeast  Level FlightAware Approximate
Wed 11:39:00 PM 27.7372 -107.0705 124° Southeast  Level FlightAware Approximate
Wed 11:40:00 PM 27.6602 -106.9427 124° Southeast  Level FlightAware Approximate
Wed 11:41:00 PM 27.5831 -106.8152 124° Southeast  Level FlightAware Approximate
Wed 11:42:00 PM 27.5059 -106.6878 124° Southeast  Level FlightAware Approximate
Wed 11:43:00 PM 27.4286 -106.5606 124° Southeast  Level FlightAware Approximate
Wed 11:44:00 PM 27.3511 -106.4336 124° Southeast  Level FlightAware Approximate
Wed 11:45:00 PM 27.2735 -106.3067 125° Southeast  Level FlightAware Approximate
Wed 11:46:00 PM 27.1959 -106.1801 125° Southeast  Level FlightAware Approximate
Wed 11:47:00 PM 27.1181 -106.0536 125° Southeast  Level FlightAware Approximate
Wed 11:48:00 PM 27.0401 -105.9272 125° Southeast  Level FlightAware Approximate
Wed 11:49:00 PM 26.9621 -105.8011 125° Southeast  Level FlightAware Approximate
Wed 11:50:00 PM 26.8840 -105.6751 125° Southeast  Level FlightAware Approximate
Wed 11:51:00 PM 26.8058 -105.5493 125° Southeast  Level FlightAware Approximate
Wed 11:52:00 PM 26.7274 -105.4237 125° Southeast  Level FlightAware Approximate
Wed 11:53:00 PM 26.6489 -105.2983 125° Southeast  Level FlightAware Approximate
Wed 11:54:00 PM 26.5704 -105.1730 125° Southeast  Level FlightAware Approximate
Wed 11:55:00 PM 26.4917 -105.0479 125° Southeast  Level FlightAware Approximate
Wed 11:56:00 PM 26.4129 -104.9230 125° Southeast  Level FlightAware Approximate
Wed 11:57:00 PM 26.3340 -104.7982 125° Southeast  Level FlightAware Approximate
Wed 11:58:00 PM 26.2550 -104.6736 125° Southeast  Level FlightAware Approximate
Wed 11:59:00 PM 26.1759 -104.5492 125° Southeast  Level FlightAware Approximate
Thu 12:00:00 AM 26.0966 -104.4249 125° Southeast  Level FlightAware Approximate
Thu 12:01:00 AM 26.0173 -104.3008 125° Southeast  Level FlightAware Approximate
Thu 12:02:00 AM 25.9379 -104.1769 125° Southeast  Level FlightAware Approximate
Thu 12:03:00 AM 25.8583 -104.0532 126° Southeast  Level FlightAware Approximate
Thu 12:04:00 AM 25.7787 -103.9296 126° Southeast  Level FlightAware Approximate
Thu 12:05:00 AM 25.6989 -103.8062 126° Southeast  Level FlightAware Approximate
Thu 12:06:00 AM 25.6191 -103.6829 126° Southeast  Level FlightAware Approximate
Thu 12:07:00 AM 25.5391 -103.5598 126° Southeast  Level FlightAware Approximate
Thu 12:08:00 AM 25.4591 -103.4369 126° Southeast  Level FlightAware Approximate
Thu 12:09:00 AM 25.3789 -103.3141 126° Southeast  Level FlightAware Approximate
Thu 12:10:00 AM 25.2986 -103.1916 126° Southeast  Level FlightAware Approximate
Thu 12:11:00 AM 25.2183 -103.0691 126° Southeast  Level FlightAware Approximate
Thu 12:12:00 AM 25.1374 -102.9471 126° Southeast  Level FlightAware Approximate
Thu 12:13:00 AM 25.0564 -102.8253 126° Southeast  Level FlightAware Approximate
Thu 12:14:00 AM 24.9753 -102.7037 126° Southeast  Level FlightAware Approximate
Thu 12:15:00 AM 24.8941 -102.5823 126° Southeast  Level FlightAware Approximate
Thu 12:16:00 AM 24.8129 -102.4610 126° Southeast  Level FlightAware Approximate
Thu 12:17:00 AM 24.7319 -102.3395 126° Southeast  Level FlightAware Approximate
Thu 12:18:00 AM 24.6518 -102.2175 125° Southeast  Level FlightAware Approximate
Thu 12:19:00 AM 24.5729 -102.0945 125° Southeast  Level FlightAware Approximate
Thu 12:20:00 AM 24.4939 -101.9717 125° Southeast  Level FlightAware Approximate
Thu 12:21:00 AM 24.4147 -101.8491 125° Southeast  Level FlightAware Approximate
Thu 12:22:00 AM 24.3355 -101.7266 125° Southeast  Level FlightAware Approximate
Thu 12:23:00 AM 24.2562 -101.6043 125° Southeast  Level FlightAware Approximate
Thu 12:24:00 AM 24.1768 -101.4822 125° Southeast  Level FlightAware Approximate
Thu 12:25:00 AM 24.0863 -101.3699 132° Southeast  Level FlightAware Approximate
Thu 12:26:00 AM 23.9941 -101.2591 132° Southeast  Level FlightAware Approximate
Thu 12:27:00 AM 23.9019 -101.1486 132° Southeast  Level FlightAware Approximate
Thu 12:28:00 AM 23.8096 -101.0382 132° Southeast  Level FlightAware Approximate
Thu 12:29:00 AM 23.7172 -100.9279 132° Southeast  Level FlightAware Approximate
Thu 12:30:00 AM 23.6247 -100.8178 133° Southeast  Level FlightAware Approximate
Thu 12:31:00 AM 23.5321 -100.7079 133° Southeast  Level FlightAware Approximate
Thu 12:32:00 AM 23.4393 -100.5985 131° Southeast  Level FlightAware Approximate
Thu 12:33:00 AM 23.3501 -100.4854 131° Southeast  Level FlightAware Approximate
Thu 12:34:00 AM 23.2609 -100.3725 131° Southeast  Level FlightAware Approximate
Thu 12:35:00 AM 23.1705 -100.2607 132° Southeast  Level FlightAware Approximate
Thu 12:36:00 AM 23.0791 -100.1501 132° Southeast  Level FlightAware Approximate
Thu 12:37:00 AM 22.9875 -100.0396 132° Southeast  Level FlightAware Approximate
Thu 12:38:00 AM 22.8959 -99.9292 132° Southeast  Level FlightAware Approximate
Thu 12:39:00 AM 22.8042 -99.8190 132° Southeast  Level FlightAware Approximate
Thu 12:40:00 AM 22.7125 -99.7089 132° Southeast  Level FlightAware Approximate
Thu 12:41:00 AM 22.6206 -99.5990 132° Southeast  Level FlightAware Approximate
Thu 12:42:00 AM 22.5287 -99.4893 132° Southeast  Level FlightAware Approximate
Thu 12:43:00 AM 22.4368 -99.3796 132° Southeast  Level FlightAware Approximate
Thu 12:44:00 AM 22.3447 -99.2702 132° Southeast  Level FlightAware Approximate
Thu 12:45:00 AM 22.2526 -99.1608 132° Southeast  Level FlightAware Approximate
Thu 12:46:00 AM 22.1604 -99.0517 132° Southeast  Level FlightAware Approximate
Thu 12:47:00 AM 22.0679 -98.9428 133° Southeast  Level FlightAware Approximate
Thu 12:48:00 AM 21.9753 -98.8342 133° Southeast  Level FlightAware Approximate
Thu 12:49:00 AM 21.8825 -98.7257 133° Southeast  Level FlightAware Approximate
Thu 12:50:00 AM 21.7897 -98.6174 133° Southeast  Level FlightAware Approximate
Thu 12:51:00 AM 21.6969 -98.5093 133° Southeast  Level FlightAware Approximate
Thu 12:52:00 AM 21.6039 -98.4012 133° Southeast  Level FlightAware Approximate
Thu 12:53:00 AM 21.5110 -98.2932 132° Southeast  Level FlightAware Approximate
Thu 12:54:00 AM 21.4198 -98.1837 132° Southeast  Level FlightAware Approximate
Thu 12:55:00 AM 21.3285 -98.0742 132° Southeast  Level FlightAware Approximate
Thu 12:56:00 AM 21.2371 -97.9650 132° Southeast  Level FlightAware Approximate
Thu 12:57:00 AM 21.1457 -97.8558 132° Southeast  Level FlightAware Approximate
Thu 12:58:00 AM 21.0542 -97.7468 132° Southeast  Level FlightAware Approximate
Thu 12:59:00 AM 20.9626 -97.6379 132° Southeast  Level FlightAware Approximate
Thu 01:00:00 AM 20.8700 -97.5301 133° Southeast  Level FlightAware Approximate
Thu 01:01:00 AM 20.7764 -97.4233 133° Southeast  Level FlightAware Approximate
Thu 01:02:00 AM 20.6827 -97.3167 133° Southeast  Level FlightAware Approximate
Thu 01:03:00 AM 20.5889 -97.2102 133° Southeast  Level FlightAware Approximate
Thu 01:04:00 AM 20.4951 -97.1039 133° Southeast  Level FlightAware Approximate
Thu 01:05:00 AM 20.4013 -96.9977 133° Southeast  Level FlightAware Approximate
Thu 01:06:00 AM 20.3073 -96.8916 133° Southeast  Level FlightAware Approximate
Thu 01:07:00 AM 20.2149 -96.7840 132° Southeast  Level FlightAware Approximate
Thu 01:08:00 AM 20.1292 -96.6704 128° Southeast  Level FlightAware Approximate
Thu 01:09:00 AM 20.0448 -96.5558 128° Southeast  Level FlightAware Approximate
Thu 01:10:00 AM 19.9603 -96.4413 128° Southeast  Level FlightAware Approximate
Thu 01:11:00 AM 19.8757 -96.3269 128° Southeast  Level FlightAware Approximate
Thu 01:12:00 AM 19.7910 -96.2127 128° Southeast  Level FlightAware Approximate
Thu 01:13:00 AM 19.7063 -96.0985 128° Southeast  Level FlightAware Approximate
Thu 01:14:00 AM 19.6215 -95.9845 128° Southeast  Level FlightAware Approximate
Thu 01:15:00 AM 19.5366 -95.8706 128° Southeast  Level FlightAware Approximate
Thu 01:16:00 AM 19.4517 -95.7568 128° Southeast  Level FlightAware Approximate
Thu 01:17:00 AM 19.3666 -95.6432 128° Southeast  Level FlightAware Approximate
Thu 01:18:00 AM 19.2816 -95.5296 128° Southeast  Level FlightAware Approximate
Thu 01:19:00 AM 19.1964 -95.4162 128° Southeast  Level FlightAware Approximate
Thu 01:20:00 AM 19.1112 -95.3029 129° Southeast  Level FlightAware Approximate
Thu 01:21:00 AM 19.0259 -95.1897 129° Southeast  Level FlightAware Approximate
Thu 01:22:00 AM 18.9406 -95.0766 128° Southeast  Level FlightAware Approximate
Thu 01:23:00 AM 18.8554 -94.9634 129° Southeast  Level FlightAware Approximate
Thu 01:24:00 AM 18.7701 -94.8504 129° Southeast  Level FlightAware Approximate
Thu 01:25:00 AM 18.6847 -94.7375 129° Southeast  Level FlightAware Approximate
Thu 01:26:00 AM 18.5993 -94.6248 129° Southeast  Level FlightAware Approximate
Thu 01:27:00 AM 18.5138 -94.5121 129° Southeast  Level FlightAware Approximate
Thu 01:28:00 AM 18.4282 -94.3995 129° Southeast  Level FlightAware Approximate
Thu 01:29:00 AM 18.3426 -94.2871 129° Southeast  Level FlightAware Approximate
Thu 01:30:00 AM 18.2568 -94.1748 129° Southeast  Level FlightAware Approximate
Thu 01:31:00 AM 18.1711 -94.0626 129° Southeast  Level FlightAware Approximate
Thu 01:32:00 AM 18.0853 -93.9504 129° Southeast  Level FlightAware Approximate
Thu 01:33:00 AM 17.9993 -93.8384 129° Southeast  Level FlightAware Approximate
Thu 01:34:00 AM 17.9134 -93.7265 129° Southeast  Level FlightAware Approximate
Thu 01:35:00 AM 17.8274 -93.6148 129° Southeast  Level FlightAware Approximate
Thu 01:36:00 AM 17.7413 -93.5031 129° Southeast  Level FlightAware Approximate
Thu 01:37:00 AM 17.6551 -93.3915 129° Southeast  Level FlightAware Approximate
Thu 01:38:00 AM 17.5689 -93.2801 129° Southeast  Level FlightAware Approximate
Thu 01:39:00 AM 17.4826 -93.1687 129° Southeast  Level FlightAware Approximate
Thu 01:40:00 AM 17.3963 -93.0575 129° Southeast  Level FlightAware Approximate
Thu 01:41:00 AM 17.3099 -92.9463 129° Southeast  Level FlightAware Approximate
Thu 01:42:00 AM 17.2234 -92.8353 129° Southeast  Level FlightAware Approximate
Thu 01:43:00 AM 17.1369 -92.7243 129° Southeast  Level FlightAware Approximate
Thu 01:44:00 AM 17.0503 -92.6135 129° Southeast  Level FlightAware Approximate
Thu 01:45:00 AM 16.9637 -92.5028 129° Southeast  Level FlightAware Approximate
Thu 01:46:00 AM 16.8770 -92.3922 129° Southeast  Level FlightAware Approximate
Thu 01:47:00 AM 16.7902 -92.2816 129° Southeast  Level FlightAware Approximate
Thu 01:48:00 AM 16.7034 -92.1712 129° Southeast  Level FlightAware Approximate
Thu 01:49:00 AM 16.6165 -92.0609 129° Southeast  Level FlightAware Approximate
Thu 01:50:00 AM 16.5296 -91.9507 129° Southeast  Level FlightAware Approximate
Thu 01:51:00 AM 16.4426 -91.8405 129° Southeast  Level FlightAware Approximate
Thu 01:52:00 AM 16.3555 -91.7305 129° Southeast  Level FlightAware Approximate
Thu 01:53:00 AM 16.2684 -91.6206 130° Southeast  Level FlightAware Approximate
Thu 01:54:00 AM 16.1812 -91.5107 130° Southeast  Level FlightAware Approximate
Thu 01:55:00 AM 16.0940 -91.4010 130° Southeast  Level FlightAware Approximate
Thu 01:56:00 AM 16.0065 -91.2915 130° Southeast  Level FlightAware Approximate
Thu 01:57:00 AM 15.9189 -91.1822 130° Southeast  Level FlightAware Approximate
Thu 01:58:00 AM 15.8312 -91.0730 130° Southeast  Level FlightAware Approximate
Thu 01:59:00 AM 15.7435 -90.9639 130° Southeast  Level FlightAware Approximate
Thu 02:00:00 AM 15.6557 -90.8549 130° Southeast  Level FlightAware Approximate
Thu 02:01:00 AM 15.5678 -90.7460 130° Southeast  Level FlightAware Approximate
Thu 02:02:00 AM 15.4799 -90.6372 130° Southeast  Level FlightAware Approximate
Thu 02:03:00 AM 15.3920 -90.5285 130° Southeast  Level FlightAware Approximate
Thu 02:04:00 AM 15.3040 -90.4198 130° Southeast  Level FlightAware Approximate
Thu 02:05:00 AM 15.2159 -90.3113 130° Southeast  Level FlightAware Approximate
Thu 02:06:00 AM 15.1278 -90.2028 130° Southeast  Level FlightAware Approximate
Thu 02:07:00 AM 15.0396 -90.0945 130° Southeast  Level FlightAware Approximate
Thu 02:08:00 AM 14.9514 -89.9862 130° Southeast  Level FlightAware Approximate
Thu 02:09:00 AM 14.8632 -89.8780 130° Southeast  Level FlightAware Approximate
Thu 02:10:00 AM 14.7749 -89.7699 130° Southeast  Level FlightAware Approximate
Thu 02:11:00 AM 14.6865 -89.6619 130° Southeast  Level FlightAware Approximate
Thu 02:12:00 AM 14.5981 -89.5540 130° Southeast  Level FlightAware Approximate
Thu 02:13:00 AM 14.5096 -89.4461 130° Southeast  Level FlightAware Approximate
Thu 02:14:00 AM 14.4211 -89.3384 130° Southeast  Level FlightAware Approximate
Thu 02:15:00 AM 14.3326 -89.2307 130° Southeast  Level FlightAware Approximate
Thu 02:16:00 AM 14.2440 -89.1232 130° Southeast  Level FlightAware Approximate
Thu 02:17:00 AM 14.1553 -89.0157 130° Southeast  Level FlightAware Approximate
Thu 02:18:00 AM 14.0666 -88.9082 130° Southeast  Level FlightAware Approximate
Thu 02:19:00 AM 13.9778 -88.8009 130° Southeast  Level FlightAware Approximate
Thu 02:20:00 AM 13.8890 -88.6937 130° Southeast  Level FlightAware Approximate
Thu 02:21:00 AM 13.8002 -88.5865 131° Southeast  Level FlightAware Approximate
Thu 02:22:00 AM 13.7112 -88.4795 131° Southeast  Level FlightAware Approximate
Thu 02:23:00 AM 13.6223 -88.3725 131° Southeast  Level FlightAware Approximate
Thu 02:24:00 AM 13.5332 -88.2657 131° Southeast  Level FlightAware Approximate
Thu 02:25:00 AM 13.4442 -88.1589 131° Southeast  Level FlightAware Approximate
Thu 02:26:00 AM 13.3550 -88.0521 131° Southeast  Level FlightAware Approximate
Thu 02:27:00 AM 13.2659 -87.9455 131° Southeast  Level FlightAware Approximate
Thu 02:28:00 AM 13.1767 -87.8389 131° Southeast  Level FlightAware Approximate
Thu 02:29:00 AM 13.0874 -87.7325 131° Southeast  Level FlightAware Approximate
Thu 02:30:00 AM 12.9981 -87.6260 131° Southeast  Level FlightAware Approximate
Thu 02:31:00 AM 12.9088 -87.5197 131° Southeast  Level FlightAware Approximate
Thu 02:32:00 AM 12.8194 -87.4135 131° Southeast  Level FlightAware Approximate
Thu 02:33:00 AM 12.7300 -87.3073 131° Southeast  Level FlightAware Approximate
Thu 02:34:00 AM 12.6405 -87.2012 131° Southeast  Level FlightAware Approximate
Thu 02:35:00 AM 12.5510 -87.0951 131° Southeast  Level FlightAware Approximate
Thu 02:36:00 AM 12.4615 -86.9892 131° Southeast  Level FlightAware Approximate
Thu 02:37:00 AM 12.3719 -86.8833 131° Southeast  Level FlightAware Approximate
Thu 02:38:00 AM 12.2823 -86.7775 131° Southeast  Level FlightAware Approximate
Thu 02:39:00 AM 12.1926 -86.6717 131° Southeast  Level FlightAware Approximate
Thu 02:40:00 AM 12.1029 -86.5661 131° Southeast  Level FlightAware Approximate
Thu 02:41:00 AM 12.0131 -86.4605 131° Southeast  Level FlightAware Approximate
Thu 02:42:00 AM 11.9233 -86.3549 131° Southeast  Level FlightAware Approximate
Thu 02:43:00 AM 11.8333 -86.2496 131° Southeast  Level FlightAware Approximate
Thu 02:44:00 AM 11.7433 -86.1444 131° Southeast  Level FlightAware Approximate
Thu 02:45:00 AM 11.6532 -86.0392 131° Southeast  Level FlightAware Approximate
Thu 02:46:00 AM 11.5631 -85.9341 131° Southeast  Level FlightAware Approximate
Thu 02:47:00 AM 11.4730 -85.8290 131° Southeast  Level FlightAware Approximate
Thu 02:48:00 AM 11.3828 -85.7241 131° Southeast  Level FlightAware Approximate
Thu 02:49:00 AM 11.2926 -85.6191 131° Southeast  Level FlightAware Approximate
Thu 02:50:00 AM 11.2023 -85.5143 131° Southeast  Level FlightAware Approximate
Thu 02:51:00 AM 11.1121 -85.4095 131° Southeast  Level FlightAware Approximate
Thu 02:52:00 AM 11.0217 -85.3048 131° Southeast  Level FlightAware Approximate
Thu 02:53:00 AM 10.9314 -85.2002 131° Southeast  Level FlightAware Approximate
Thu 02:54:00 AM 10.8410 -85.0956 131° Southeast  Level FlightAware Approximate
Thu 02:55:00 AM 10.7505 -84.9911 131° Southeast  Level FlightAware Approximate
Thu 02:56:00 AM 10.6601 -84.8866 131° Southeast  Level FlightAware Approximate
Thu 02:57:00 AM 10.5696 -84.7822 131° Southeast  Level FlightAware Approximate
Thu 02:58:00 AM 10.4790 -84.6779 131° Southeast  Level FlightAware Approximate
Thu 02:59:00 AM 10.3884 -84.5736 131° Southeast  Level FlightAware Approximate
Thu 03:00:00 AM 10.2978 -84.4694 131° Southeast  Level FlightAware Approximate
Thu 03:01:00 AM 10.2072 -84.3652 131° Southeast  Level FlightAware Approximate
Thu 03:02:00 AM 10.1165 -84.2611 131° Southeast  Level FlightAware Approximate
Thu 03:03:00 AM 10.0258 -84.1571 132° Southeast  Level FlightAware Approximate
Thu 03:04:00 AM 9.9351 -84.0531 132° Southeast  Level FlightAware Approximate
Thu 03:05:00 AM 9.8443 -83.9492 132° Southeast  Level FlightAware Approximate
Thu 03:06:00 AM 9.7535 -83.8453 132° Southeast  Level FlightAware Approximate
Thu 03:07:00 AM 9.6627 -83.7415 132° Southeast  Level FlightAware Approximate
Thu 03:08:00 AM 9.5718 -83.6378 132° Southeast  Level FlightAware Approximate
Thu 03:09:00 AM 9.4810 -83.5341 132° Southeast  Level FlightAware Approximate
Thu 03:10:00 AM 9.3900 -83.4304 132° Southeast  Level FlightAware Approximate
Thu 03:11:00 AM 9.2991 -83.3268 132° Southeast  Level FlightAware Approximate
Thu 03:12:00 AM 9.2081 -83.2233 132° Southeast  Level FlightAware Approximate
Thu 03:13:00 AM 9.1171 -83.1198 132° Southeast  Level FlightAware Approximate
Thu 03:14:00 AM 9.0260 -83.0164 132° Southeast  Level FlightAware Approximate
Thu 03:15:00 AM 8.9350 -82.9130 132° Southeast  Level FlightAware Approximate
Thu 03:16:00 AM 8.8440 -82.8096 131° Southeast  Level FlightAware Approximate
Thu 03:17:00 AM 8.7547 -82.7048 131° Southeast  Level FlightAware Approximate
Thu 03:18:00 AM 8.6653 -82.5999 131° Southeast  Level FlightAware Approximate
Thu 03:19:00 AM 8.5759 -82.4952 131° Southeast  Level FlightAware Approximate
Thu 03:20:00 AM 8.4865 -82.3904 131° Southeast  Level FlightAware Approximate
Thu 03:21:00 AM 8.3971 -82.2858 131° Southeast  Level FlightAware Approximate
Thu 03:22:00 AM 8.3076 -82.1812 131° Southeast  Level FlightAware Approximate
Thu 03:23:00 AM 8.2168 -82.0778 132° Southeast  Level FlightAware Approximate
Thu 03:24:00 AM 8.1248 -81.9754 132° Southeast  Level FlightAware Approximate
Thu 03:25:00 AM 8.0328 -81.8731 132° Southeast  Level FlightAware Approximate
Thu 03:26:00 AM 7.9408 -81.7709 132° Southeast  Level FlightAware Approximate
Thu 03:27:00 AM 7.8488 -81.6687 132° Southeast  Level FlightAware Approximate
Thu 03:28:00 AM 7.7567 -81.5665 132° Southeast  Level FlightAware Approximate
Thu 03:29:00 AM 7.6646 -81.4644 132° Southeast  Level FlightAware Approximate
Thu 03:30:00 AM 7.5735 -81.3614 132° Southeast  Level FlightAware Approximate
Thu 03:31:00 AM 7.4823 -81.2585 132° Southeast  Level FlightAware Approximate
Thu 03:32:00 AM 7.3911 -81.1557 132° Southeast  Level FlightAware Approximate
Thu 03:33:00 AM 7.2999 -81.0529 132° Southeast  Level FlightAware Approximate
Thu 03:34:00 AM 7.2087 -80.9501 132° Southeast  Level FlightAware Approximate
Thu 03:35:00 AM 7.1174 -80.8473 132° Southeast  Level FlightAware Approximate
Thu 03:36:00 AM 7.0261 -80.7447 132° Southeast  Level FlightAware Approximate
Thu 03:37:00 AM 6.9348 -80.6420 132° Southeast  Level FlightAware Approximate
Thu 03:38:00 AM 6.8435 -80.5394 132° Southeast  Level FlightAware Approximate
Thu 03:39:00 AM 6.7521 -80.4368 132° Southeast  Level FlightAware Approximate
Thu 03:40:00 AM 6.6608 -80.3343 132° Southeast  Level FlightAware Approximate
Thu 03:41:00 AM 6.5694 -80.2318 132° Southeast  Level FlightAware Approximate
Thu 03:42:00 AM 6.4780 -80.1293 132° Southeast  Level FlightAware Approximate
Thu 03:43:00 AM 6.3864 -80.0270 132° Southeast  Level FlightAware Approximate
Thu 03:44:00 AM 6.2947 -79.9248 132° Southeast  Level FlightAware Approximate
Thu 03:45:00 AM 6.2031 -79.8226 132° Southeast  Level FlightAware Approximate
Thu 03:46:00 AM 6.1114 -79.7205 132° Southeast  Level FlightAware Approximate
Thu 03:47:00 AM 6.0197 -79.6184 132° Southeast  Level FlightAware Approximate
Thu 03:48:00 AM 5.9280 -79.5163 132° Southeast  Level FlightAware Approximate
Thu 03:49:00 AM 5.8362 -79.4142 132° Southeast  Level FlightAware Approximate
Thu 03:50:00 AM 5.7445 -79.3122 132° Southeast  Level FlightAware Approximate
Thu 03:51:00 AM 5.6527 -79.2102 132° Southeast  Level FlightAware Approximate
Thu 03:52:00 AM 5.5609 -79.1083 132° Southeast  Level FlightAware Approximate
Thu 03:53:00 AM 5.4691 -79.0064 132° Southeast  Level FlightAware Approximate
Thu 03:54:00 AM 5.3773 -78.9045 132° Southeast  Level FlightAware Approximate
Thu 03:55:00 AM 5.2854 -78.8026 132° Southeast  Level FlightAware Approximate
Thu 03:56:00 AM 5.1936 -78.7008 132° Southeast  Level FlightAware Approximate
Thu 03:57:00 AM 5.1017 -78.5990 132° Southeast  Level FlightAware Approximate
Thu 03:58:00 AM 5.0098 -78.4973 132° Southeast  Level FlightAware Approximate
Thu 03:59:00 AM 4.9179 -78.3955 132° Southeast  Level FlightAware Approximate
Thu 04:00:00 AM 4.8260 -78.2938 132° Southeast  Level FlightAware Approximate
Thu 04:01:00 AM 4.7341 -78.1921 132° Southeast  Level FlightAware Approximate
Thu 04:02:00 AM 4.6421 -78.0905 132° Southeast  Level FlightAware Approximate
Thu 04:03:00 AM 4.5501 -77.9888 132° Southeast  Level FlightAware Approximate
Thu 04:04:00 AM 4.4582 -77.8872 132° Southeast  Level FlightAware Approximate
Thu 04:05:00 AM 4.3662 -77.7857 132° Southeast  Level FlightAware Approximate
Thu 04:06:00 AM 4.2742 -77.6841 132° Southeast  Level FlightAware Approximate
Thu 04:07:00 AM 4.1821 -77.5826 132° Southeast  Level FlightAware Approximate
Thu 04:08:00 AM 4.0901 -77.4811 132° Southeast  Level FlightAware Approximate
Thu 04:09:00 AM 3.9981 -77.3796 132° Southeast  Level FlightAware Approximate
Thu 04:10:00 AM 3.9060 -77.2781 132° Southeast  Level FlightAware Approximate
Thu 04:11:00 AM 3.8139 -77.1767 132° Southeast  Level FlightAware Approximate
Thu 04:12:00 AM 3.7218 -77.0753 132° Southeast  Level FlightAware Approximate
Thu 04:13:00 AM 3.6298 -76.9739 132° Southeast  Level FlightAware Approximate
Thu 04:14:00 AM 3.5377 -76.8725 132° Southeast  Level FlightAware Approximate
Thu 04:15:00 AM 3.4455 -76.7712 132° Southeast  Level FlightAware Approximate
Thu 04:16:00 AM 3.3534 -76.6699 132° Southeast  Level FlightAware Approximate
Thu 04:17:00 AM 3.2613 -76.5685 132° Southeast  Level FlightAware Approximate
Thu 04:18:00 AM 3.1691 -76.4672 132° Southeast  Level FlightAware Approximate
Thu 04:19:00 AM 3.0770 -76.3660 132° Southeast  Level FlightAware Approximate
Thu 04:20:00 AM 2.9848 -76.2647 132° Southeast  Level FlightAware Approximate
Thu 04:21:00 AM 2.8926 -76.1635 132° Southeast  Level FlightAware Approximate
Thu 04:22:00 AM 2.8008 -76.0619 132° Southeast  Level FlightAware Approximate
Thu 04:23:00 AM 2.7092 -75.9602 132° Southeast  Level FlightAware Approximate
Thu 04:24:00 AM 2.6176 -75.8584 132° Southeast  Level FlightAware Approximate
Thu 04:25:00 AM 2.5260 -75.7566 132° Southeast  Level FlightAware Approximate
Thu 04:26:00 AM 2.4344 -75.6549 132° Southeast  Level FlightAware Approximate
Thu 04:27:00 AM 2.3425 -75.5535 132° Southeast  Level FlightAware Approximate
Thu 04:28:00 AM 2.2504 -75.4523 132° Southeast  Level FlightAware Approximate
Thu 04:29:00 AM 2.1582 -75.3510 132° Southeast  Level FlightAware Approximate
Thu 04:30:00 AM 2.0661 -75.2498 132° Southeast  Level FlightAware Approximate
Thu 04:31:00 AM 1.9739 -75.1487 132° Southeast  Level FlightAware Approximate
Thu 04:32:00 AM 1.8818 -75.0475 132° Southeast  Level FlightAware Approximate
Thu 04:33:00 AM 1.7896 -74.9463 132° Southeast  Level FlightAware Approximate
Thu 04:34:00 AM 1.6974 -74.8451 132° Southeast  Level FlightAware Approximate
Thu 04:35:00 AM 1.6053 -74.7440 132° Southeast  Level FlightAware Approximate
Thu 04:36:00 AM 1.5131 -74.6429 132° Southeast  Level FlightAware Approximate
Thu 04:37:00 AM 1.4209 -74.5417 132° Southeast  Level FlightAware Approximate
Thu 04:38:00 AM 1.3287 -74.4406 132° Southeast  Level FlightAware Approximate
Thu 04:39:00 AM 1.2365 -74.3395 132° Southeast  Level FlightAware Approximate
Thu 04:40:00 AM 1.1443 -74.2384 132° Southeast  Level FlightAware Approximate
Thu 04:41:00 AM 1.0521 -74.1373 132° Southeast  Level FlightAware Approximate
Thu 04:42:00 AM 0.9576 -74.0384 134° Southeast  Level FlightAware Approximate
Thu 04:43:00 AM 0.8624 -73.9400 134° Southeast  Level FlightAware Approximate
Thu 04:44:00 AM 0.7673 -73.8417 134° Southeast  Level FlightAware Approximate
Thu 04:45:00 AM 0.6721 -73.7433 134° Southeast  Level FlightAware Approximate
Thu 04:46:00 AM 0.5770 -73.6450 134° Southeast  Level FlightAware Approximate
Thu 04:47:00 AM 0.4818 -73.5467 134° Southeast  Level FlightAware Approximate
Thu 04:48:00 AM 0.3867 -73.4484 134° Southeast  Level FlightAware Approximate
Thu 04:49:00 AM 0.2915 -73.3501 134° Southeast  Level FlightAware Approximate
Thu 04:50:00 AM 0.1964 -73.2518 134° Southeast  Level FlightAware Approximate
Thu 04:51:00 AM 0.1012 -73.1535 134° Southeast  Level FlightAware Approximate
Thu 04:52:00 AM 0.0061 -73.0552 134° Southeast  Level FlightAware Approximate
Thu 04:53:00 AM -0.0891 -72.9568 134° Southeast  Level FlightAware Approximate
Thu 04:54:00 AM -0.1843 -72.8585 134° Southeast  Level FlightAware Approximate
Thu 04:55:00 AM -0.2794 -72.7602 134° Southeast  Level FlightAware Approximate
Thu 04:56:00 AM -0.3746 -72.6619 134° Southeast  Level FlightAware Approximate
Thu 04:57:00 AM -0.4697 -72.5636 134° Southeast  Level FlightAware Approximate
Thu 04:58:00 AM -0.5649 -72.4653 134° Southeast  Level FlightAware Approximate
Thu 04:59:00 AM -0.6600 -72.3670 134° Southeast  Level FlightAware Approximate
Thu 05:00:00 AM -0.7552 -72.2686 134° Southeast  Level FlightAware Approximate
Thu 05:01:00 AM -0.8503 -72.1703 134° Southeast  Level FlightAware Approximate
Thu 05:02:00 AM -0.9455 -72.0720 134° Southeast  Level FlightAware Approximate
Thu 05:03:00 AM -1.0406 -71.9736 134° Southeast  Level FlightAware Approximate
Thu 05:04:00 AM -1.1357 -71.8753 134° Southeast  Level FlightAware Approximate
Thu 05:05:00 AM -1.2309 -71.7769 134° Southeast  Level FlightAware Approximate
Thu 05:06:00 AM -1.3260 -71.6786 134° Southeast  Level FlightAware Approximate
Thu 05:07:00 AM -1.4211 -71.5802 134° Southeast  Level FlightAware Approximate
Thu 05:08:00 AM -1.5162 -71.4818 134° Southeast  Level FlightAware Approximate
Thu 05:09:00 AM -1.6114 -71.3834 134° Southeast  Level FlightAware Approximate
Thu 05:10:00 AM -1.7065 -71.2850 134° Southeast  Level FlightAware Approximate
Thu 05:11:00 AM -1.8016 -71.1866 134° Southeast  Level FlightAware Approximate
Thu 05:12:00 AM -1.8967 -71.0882 134° Southeast  Level FlightAware Approximate
Thu 05:13:00 AM -1.9918 -70.9898 134° Southeast  Level FlightAware Approximate
Thu 05:14:00 AM -2.0869 -70.8914 134° Southeast  Level FlightAware Approximate
Thu 05:15:00 AM -2.1820 -70.7929 134° Southeast  Level FlightAware Approximate
Thu 05:16:00 AM -2.2770 -70.6945 134° Southeast  Level FlightAware Approximate
Thu 05:17:00 AM -2.3721 -70.5960 134° Southeast  Level FlightAware Approximate
Thu 05:18:00 AM -2.4672 -70.4975 134° Southeast  Level FlightAware Approximate
Thu 05:19:00 AM -2.5622 -70.3990 134° Southeast  Level FlightAware Approximate
Thu 05:20:00 AM -2.6573 -70.3005 134° Southeast  Level FlightAware Approximate
Thu 05:21:00 AM -2.7523 -70.2020 134° Southeast  Level FlightAware Approximate
Thu 05:22:00 AM -2.8473 -70.1034 134° Southeast  Level FlightAware Approximate
Thu 05:23:00 AM -2.9424 -70.0049 134° Southeast  Level FlightAware Approximate
Thu 05:24:00 AM -3.0374 -69.9063 134° Southeast  Level FlightAware Approximate
Thu 05:25:00 AM -3.1324 -69.8077 134° Southeast  Level FlightAware Approximate
Thu 05:26:00 AM -3.2274 -69.7091 134° Southeast  Level FlightAware Approximate
Thu 05:27:00 AM -3.3224 -69.6104 134° Southeast  Level FlightAware Approximate
Thu 05:28:00 AM -3.4174 -69.5118 134° Southeast  Level FlightAware Approximate
Thu 05:29:00 AM -3.5124 -69.4131 134° Southeast  Level FlightAware Approximate
Thu 05:30:00 AM -3.6073 -69.3144 134° Southeast  Level FlightAware Approximate
Thu 05:31:00 AM -3.7023 -69.2157 134° Southeast  Level FlightAware Approximate
Thu 05:32:00 AM -3.7972 -69.1170 134° Southeast  Level FlightAware Approximate
Thu 05:33:00 AM -3.8921 -69.0182 134° Southeast  Level FlightAware Approximate
Thu 05:34:00 AM -3.9870 -68.9194 134° Southeast  Level FlightAware Approximate
Thu 05:35:00 AM -4.0819 -68.8206 134° Southeast  Level FlightAware Approximate
Thu 05:36:00 AM -4.1768 -68.7218 134° Southeast  Level FlightAware Approximate
Thu 05:37:00 AM -4.2717 -68.6230 134° Southeast  Level FlightAware Approximate
Thu 05:38:00 AM -4.3666 -68.5241 134° Southeast  Level FlightAware Approximate
Thu 05:39:00 AM -4.4614 -68.4252 134° Southeast  Level FlightAware Approximate
Thu 05:40:00 AM -4.5563 -68.3263 134° Southeast  Level FlightAware Approximate
Thu 05:41:00 AM -4.6511 -68.2273 134° Southeast  Level FlightAware Approximate
Thu 05:42:00 AM -4.7459 -68.1284 134° Southeast  Level FlightAware Approximate
Thu 05:43:00 AM -4.8407 -68.0294 134° Southeast  Level FlightAware Approximate
Thu 05:44:00 AM -4.9355 -67.9303 134° Southeast  Level FlightAware Approximate
Thu 05:45:00 AM -5.0303 -67.8313 134° Southeast  Level FlightAware Approximate
Thu 05:46:00 AM -5.1250 -67.7322 134° Southeast  Level FlightAware Approximate
Thu 05:47:00 AM -5.2197 -67.6331 134° Southeast  Level FlightAware Approximate
Thu 05:48:00 AM -5.3145 -67.5339 134° Southeast  Level FlightAware Approximate
Thu 05:49:00 AM -5.4092 -67.4347 134° Southeast  Level FlightAware Approximate
Thu 05:50:00 AM -5.5039 -67.3355 134° Southeast  Level FlightAware Approximate
Thu 05:51:00 AM -5.5985 -67.2363 134° Southeast  Level FlightAware Approximate
Thu 05:52:00 AM -5.6932 -67.1370 134° Southeast  Level FlightAware Approximate
Thu 05:53:00 AM -5.7878 -67.0377 134° Southeast  Level FlightAware Approximate
Thu 05:54:00 AM -5.8825 -66.9384 134° Southeast  Level FlightAware Approximate
Thu 05:55:00 AM -5.9771 -66.8390 134° Southeast  Level FlightAware Approximate
Thu 05:56:00 AM -6.0717 -66.7396 134° Southeast  Level FlightAware Approximate
Thu 05:57:00 AM -6.1662 -66.6402 134° Southeast  Level FlightAware Approximate
Thu 05:58:00 AM -6.2608 -66.5407 134° Southeast  Level FlightAware Approximate
Thu 05:59:00 AM -6.3553 -66.4412 134° Southeast  Level FlightAware Approximate
Thu 06:00:00 AM -6.4498 -66.3416 134° Southeast  Level FlightAware Approximate
Thu 06:01:00 AM -6.5443 -66.2420 134° Southeast  Level FlightAware Approximate
Thu 06:02:00 AM -6.6388 -66.1424 134° Southeast  Level FlightAware Approximate
Thu 06:03:00 AM -6.7333 -66.0427 134° Southeast  Level FlightAware Approximate
Thu 06:04:00 AM -6.8277 -65.9430 134° Southeast  Level FlightAware Approximate
Thu 06:05:00 AM -6.9221 -65.8433 134° Southeast  Level FlightAware Approximate
Thu 06:06:00 AM -7.0165 -65.7435 134° Southeast  Level FlightAware Approximate
Thu 06:07:00 AM -7.1109 -65.6437 134° Southeast  Level FlightAware Approximate
Thu 06:08:00 AM -7.2052 -65.5439 134° Southeast  Level FlightAware Approximate
Thu 06:09:00 AM -7.2995 -65.4439 134° Southeast  Level FlightAware Approximate
Thu 06:10:00 AM -7.3938 -65.3440 134° Southeast  Level FlightAware Approximate
Thu 06:11:00 AM -7.4881 -65.2440 134° Southeast  Level FlightAware Approximate
Thu 06:12:00 AM -7.5824 -65.1440 134° Southeast  Level FlightAware Approximate
Thu 06:13:00 AM -7.6766 -65.0439 134° Southeast  Level FlightAware Approximate
Thu 06:14:00 AM -7.7709 -64.9438 134° Southeast  Level FlightAware Approximate
Thu 06:15:00 AM -7.8650 -64.8436 134° Southeast  Level FlightAware Approximate
Thu 06:16:00 AM -7.9592 -64.7434 134° Southeast  Level FlightAware Approximate
Thu 06:17:00 AM -8.0534 -64.6432 133° Southeast  Level FlightAware Approximate
Thu 06:18:00 AM -8.1475 -64.5429 133° Southeast  Level FlightAware Approximate
Thu 06:19:00 AM -8.2416 -64.4425 133° Southeast  Level FlightAware Approximate
Thu 06:20:00 AM -8.3357 -64.3421 133° Southeast  Level FlightAware Approximate
Thu 06:21:00 AM -8.4297 -64.2417 133° Southeast  Level FlightAware Approximate
Thu 06:22:00 AM -8.5237 -64.1412 133° Southeast  Level FlightAware Approximate
Thu 06:23:00 AM -8.6177 -64.0406 133° Southeast  Level FlightAware Approximate
Thu 06:24:00 AM -8.7117 -63.9400 133° Southeast  Level FlightAware Approximate
Thu 06:25:00 AM -8.8056 -63.8394 133° Southeast  Level FlightAware Approximate
Thu 06:26:00 AM -8.8996 -63.7387 133° Southeast  Level FlightAware Approximate
Thu 06:27:00 AM -8.9934 -63.6380 133° Southeast  Level FlightAware Approximate
Thu 06:28:00 AM -9.0873 -63.5372 133° Southeast  Level FlightAware Approximate
Thu 06:29:00 AM -9.1811 -63.4363 133° Southeast  Level FlightAware Approximate
Thu 06:30:00 AM -9.2749 -63.3354 133° Southeast  Level FlightAware Approximate
Thu 06:31:00 AM -9.3687 -63.2344 133° Southeast  Level FlightAware Approximate
Thu 06:32:00 AM -9.4625 -63.1334 133° Southeast  Level FlightAware Approximate
Thu 06:33:00 AM -9.5562 -63.0324 133° Southeast  Level FlightAware Approximate
Thu 06:34:00 AM -9.6499 -62.9312 133° Southeast  Level FlightAware Approximate
Thu 06:35:00 AM -9.7435 -62.8301 133° Southeast  Level FlightAware Approximate
Thu 06:36:00 AM -9.8372 -62.7288 133° Southeast  Level FlightAware Approximate
Thu 06:37:00 AM -9.9308 -62.6275 133° Southeast  Level FlightAware Approximate
Thu 06:38:00 AM -10.0243 -62.5262 133° Southeast  Level FlightAware Approximate
Thu 06:39:00 AM -10.1179 -62.4248 133° Southeast  Level FlightAware Approximate
Thu 06:40:00 AM -10.2114 -62.3233 133° Southeast  Level FlightAware Approximate
Thu 06:41:00 AM -10.3049 -62.2218 133° Southeast  Level FlightAware Approximate
Thu 06:42:00 AM -10.3983 -62.1202 133° Southeast  Level FlightAware Approximate
Thu 06:43:00 AM -10.4917 -62.0185 133° Southeast  Level FlightAware Approximate
Thu 06:44:00 AM -10.5851 -61.9168 133° Southeast  Level FlightAware Approximate
Thu 06:45:00 AM -10.6785 -61.8150 133° Southeast  Level FlightAware Approximate
Thu 06:46:00 AM -10.7718 -61.7132 133° Southeast  Level FlightAware Approximate
Thu 06:47:00 AM -10.8651 -61.6113 133° Southeast  Level FlightAware Approximate
Thu 06:48:00 AM -10.9583 -61.5093 133° Southeast  Level FlightAware Approximate
Thu 06:49:00 AM -11.0515 -61.4073 133° Southeast  Level FlightAware Approximate
Thu 06:50:00 AM -11.1447 -61.3052 133° Southeast  Level FlightAware Approximate
Thu 06:51:00 AM -11.2379 -61.2031 133° Southeast  Level FlightAware Approximate
Thu 06:52:00 AM -11.3310 -61.1008 133° Southeast  Level FlightAware Approximate
Thu 06:53:00 AM -11.4241 -60.9986 133° Southeast  Level FlightAware Approximate
Thu 06:54:00 AM -11.5171 -60.8962 133° Southeast  Level FlightAware Approximate
Thu 06:55:00 AM -11.6101 -60.7938 133° Southeast  Level FlightAware Approximate
Thu 06:56:00 AM -11.7031 -60.6913 133° Southeast  Level FlightAware Approximate
Thu 06:57:00 AM -11.7960 -60.5887 133° Southeast  Level FlightAware Approximate
Thu 06:58:00 AM -11.8889 -60.4861 133° Southeast  Level FlightAware Approximate
Thu 06:59:00 AM -11.9818 -60.3834 133° Southeast  Level FlightAware Approximate
Thu 07:00:00 AM -12.0746 -60.2806 133° Southeast  Level FlightAware Approximate
Thu 07:01:00 AM -12.1674 -60.1778 133° Southeast  Level FlightAware Approximate
Thu 07:02:00 AM -12.2601 -60.0748 133° Southeast  Level FlightAware Approximate
Thu 07:03:00 AM -12.3528 -59.9719 133° Southeast  Level FlightAware Approximate
Thu 07:04:00 AM -12.4455 -59.8688 133° Southeast  Level FlightAware Approximate
Thu 07:05:00 AM -12.5381 -59.7657 133° Southeast  Level FlightAware Approximate
Thu 07:06:00 AM -12.6307 -59.6624 133° Southeast  Level FlightAware Approximate
Thu 07:07:00 AM -12.7233 -59.5592 133° Southeast  Level FlightAware Approximate
Thu 07:08:00 AM -12.8158 -59.4558 133° Southeast  Level FlightAware Approximate
Thu 07:09:00 AM -12.9082 -59.3524 133° Southeast  Level FlightAware Approximate
Thu 07:10:00 AM -13.0007 -59.2489 133° Southeast  Level FlightAware Approximate
Thu 07:11:00 AM -13.0931 -59.1453 132° Southeast  Level FlightAware Approximate
Thu 07:12:00 AM -13.1854 -59.0416 132° Southeast  Level FlightAware Approximate
Thu 07:13:00 AM -13.2777 -58.9378 132° Southeast  Level FlightAware Approximate
Thu 07:14:00 AM -13.3700 -58.8340 132° Southeast  Level FlightAware Approximate
Thu 07:15:00 AM -13.4622 -58.7301 132° Southeast  Level FlightAware Approximate
Thu 07:16:00 AM -13.5544 -58.6261 132° Southeast  Level FlightAware Approximate
Thu 07:17:00 AM -13.6465 -58.5221 132° Southeast  Level FlightAware Approximate
Thu 07:18:00 AM -13.7386 -58.4179 132° Southeast  Level FlightAware Approximate
Thu 07:19:00 AM -13.8306 -58.3137 132° Southeast  Level FlightAware Approximate
Thu 07:20:00 AM -13.9226 -58.2094 132° Southeast  Level FlightAware Approximate
Thu 07:21:00 AM -14.0146 -58.1050 132° Southeast  Level FlightAware Approximate
Thu 07:22:00 AM -14.1065 -58.0005 132° Southeast  Level FlightAware Approximate
Thu 07:23:00 AM -14.1984 -57.8960 132° Southeast  Level FlightAware Approximate
Thu 07:24:00 AM -14.2902 -57.7913 132° Southeast  Level FlightAware Approximate
Thu 07:25:00 AM -14.3820 -57.6866 132° Southeast  Level FlightAware Approximate
Thu 07:26:00 AM -14.4737 -57.5817 132° Southeast  Level FlightAware Approximate
Thu 07:27:00 AM -14.5654 -57.4768 132° Southeast  Level FlightAware Approximate
Thu 07:28:00 AM -14.6570 -57.3719 132° Southeast  Level FlightAware Approximate
Thu 07:29:00 AM -14.7486 -57.2668 132° Southeast  Level FlightAware Approximate
Thu 07:30:00 AM -14.8402 -57.1616 132° Southeast  Level FlightAware Approximate
Thu 07:31:00 AM -14.9317 -57.0564 132° Southeast  Level FlightAware Approximate
Thu 07:32:00 AM -15.0231 -56.9510 132° Southeast  Level FlightAware Approximate
Thu 07:33:00 AM -15.1145 -56.8456 132° Southeast  Level FlightAware Approximate
Thu 07:34:00 AM -15.2059 -56.7400 132° Southeast  Level FlightAware Approximate
Thu 07:35:00 AM -15.2972 -56.6344 132° Southeast  Level FlightAware Approximate
Thu 07:36:00 AM -15.3884 -56.5287 132° Southeast  Level FlightAware Approximate
Thu 07:37:00 AM -15.4796 -56.4229 132° Southeast  Level FlightAware Approximate
Thu 07:38:00 AM -15.5708 -56.3170 132° Southeast  Level FlightAware Approximate
Thu 07:39:00 AM -15.6619 -56.2110 132° Southeast  Level FlightAware Approximate
Thu 07:40:00 AM -15.7529 -56.1049 132° Southeast  Level FlightAware Approximate
Thu 07:41:00 AM -15.8439 -55.9987 132° Southeast  Level FlightAware Approximate
Thu 07:42:00 AM -15.9349 -55.8925 132° Southeast  Level FlightAware Approximate
Thu 07:43:00 AM -16.0258 -55.7861 132° Southeast  Level FlightAware Approximate
Thu 07:44:00 AM -16.1166 -55.6796 132° Southeast  Level FlightAware Approximate
Thu 07:45:00 AM -16.2074 -55.5731 132° Southeast  Level FlightAware Approximate
Thu 07:46:00 AM -16.2981 -55.4664 132° Southeast  Level FlightAware Approximate
Thu 07:47:00 AM -16.3888 -55.3596 132° Southeast  Level FlightAware Approximate
Thu 07:48:00 AM -16.4795 -55.2528 131° Southeast  Level FlightAware Approximate
Thu 07:49:00 AM -16.5700 -55.1458 131° Southeast  Level FlightAware Approximate
Thu 07:50:00 AM -16.6605 -55.0387 131° Southeast  Level FlightAware Approximate
Thu 07:51:00 AM -16.7510 -54.9316 131° Southeast  Level FlightAware Approximate
Thu 07:52:00 AM -16.8414 -54.8243 131° Southeast  Level FlightAware Approximate
Thu 07:53:00 AM -16.9318 -54.7169 131° Southeast  Level FlightAware Approximate
Thu 07:54:00 AM -17.0221 -54.6095 131° Southeast  Level FlightAware Approximate
Thu 07:55:00 AM -17.1123 -54.5019 131° Southeast  Level FlightAware Approximate
Thu 07:56:00 AM -17.2025 -54.3942 131° Southeast  Level FlightAware Approximate
Thu 07:57:00 AM -17.2926 -54.2864 131° Southeast  Level FlightAware Approximate
Thu 07:58:00 AM -17.3827 -54.1785 131° Southeast  Level FlightAware Approximate
Thu 07:59:00 AM -17.4727 -54.0705 131° Southeast  Level FlightAware Approximate
Thu 08:00:00 AM -17.5627 -53.9624 131° Southeast  Level FlightAware Approximate
Thu 08:01:00 AM -17.6526 -53.8542 131° Southeast  Level FlightAware Approximate
Thu 08:02:00 AM -17.7424 -53.7459 131° Southeast  Level FlightAware Approximate
Thu 08:03:00 AM -17.8322 -53.6375 131° Southeast  Level FlightAware Approximate
Thu 08:04:00 AM -17.9219 -53.5289 131° Southeast  Level FlightAware Approximate
Thu 08:05:00 AM -18.0116 -53.4203 131° Southeast  Level FlightAware Approximate
Thu 08:06:00 AM -18.1012 -53.3115 131° Southeast  Level FlightAware Approximate
Thu 08:07:00 AM -18.1907 -53.2026 131° Southeast  Level FlightAware Approximate
Thu 08:08:00 AM -18.2802 -53.0937 131° Southeast  Level FlightAware Approximate
Thu 08:09:00 AM -18.3696 -52.9846 131° Southeast  Level FlightAware Approximate
Thu 08:10:00 AM -18.4589 -52.8754 131° Southeast  Level FlightAware Approximate
Thu 08:11:00 AM -18.5482 -52.7660 131° Southeast  Level FlightAware Approximate
Thu 08:12:00 AM -18.6374 -52.6566 131° Southeast  Level FlightAware Approximate
Thu 08:13:00 AM -18.7266 -52.5470 131° Southeast  Level FlightAware Approximate
Thu 08:14:00 AM -18.8157 -52.4374 131° Southeast  Level FlightAware Approximate
Thu 08:15:00 AM -18.9047 -52.3276 131° Southeast  Level FlightAware Approximate
Thu 08:16:00 AM -18.9937 -52.2177 131° Southeast  Level FlightAware Approximate
Thu 08:17:00 AM -19.0826 -52.1077 131° Southeast  Level FlightAware Approximate
Thu 08:18:00 AM -19.1714 -51.9975 131° Southeast  Level FlightAware Approximate
Thu 08:19:00 AM -19.2602 -51.8873 130° Southeast  Level FlightAware Approximate
Thu 08:20:00 AM -19.3489 -51.7769 130° Southeast  Level FlightAware Approximate
Thu 08:21:00 AM -19.4375 -51.6664 130° Southeast  Level FlightAware Approximate
Thu 08:22:00 AM -19.5261 -51.5558 130° Southeast  Level FlightAware Approximate
Thu 08:23:00 AM -19.6146 -51.4451 130° Southeast  Level FlightAware Approximate
Thu 08:24:00 AM -19.7031 -51.3342 130° Southeast  Level FlightAware Approximate
Thu 08:25:00 AM -19.7914 -51.2232 130° Southeast  Level FlightAware Approximate
Thu 08:26:00 AM -19.8797 -51.1121 130° Southeast  Level FlightAware Approximate
Thu 08:27:00 AM -19.9680 -51.0009 130° Southeast  Level FlightAware Approximate
Thu 08:28:00 AM -20.0561 -50.8895 130° Southeast  Level FlightAware Approximate
Thu 08:29:00 AM -20.1442 -50.7781 130° Southeast  Level FlightAware Approximate
Thu 08:30:00 AM -20.2322 -50.6665 130° Southeast  Level FlightAware Approximate
Thu 08:31:00 AM -20.3202 -50.5547 130° Southeast  Level FlightAware Approximate
Thu 08:32:00 AM -20.4081 -50.4429 130° Southeast  Level FlightAware Approximate
Thu 08:33:00 AM -20.4959 -50.3309 130° Southeast  Level FlightAware Approximate
Thu 08:34:00 AM -20.5836 -50.2188 130° Southeast  Level FlightAware Approximate
Thu 08:35:00 AM -20.6713 -50.1065 130° Southeast  Level FlightAware Approximate
Thu 08:36:00 AM -20.7589 -49.9942 130° Southeast  Level FlightAware Approximate
Thu 08:37:00 AM -20.8464 -49.8817 130° Southeast  Level FlightAware Approximate
Thu 08:38:00 AM -20.9338 -49.7691 130° Southeast  Level FlightAware Approximate
Thu 08:39:00 AM -21.0212 -49.6563 130° Southeast  Level FlightAware Approximate
Thu 08:40:00 AM -21.1085 -49.5434 130° Southeast  Level FlightAware Approximate
Thu 08:41:00 AM -21.1957 -49.4304 130° Southeast  Level FlightAware Approximate
Thu 08:42:00 AM -21.2829 -49.3172 130° Southeast  Level FlightAware Approximate
Thu 08:43:00 AM -21.3687 -49.2055 130° Southeast  Level FlightAware Approximate
Thu 08:44:00 AM -21.4545 -49.0937 130° Southeast  Level FlightAware Approximate
Thu 08:45:00 AM -21.5402 -48.9817 129° Southeast  Level FlightAware Approximate
Thu 08:46:00 AM -21.6258 -48.8697 129° Southeast  Level FlightAware Approximate
Thu 08:47:00 AM -21.7113 -48.7574 129° Southeast  Level FlightAware Approximate
Thu 08:48:00 AM -21.7968 -48.6451 129° Southeast  Level FlightAware Approximate
Thu 08:49:00 AM -21.8822 -48.5326 129° Southeast  Level FlightAware Approximate
Thu 08:50:00 AM -21.9675 -48.4200 129° Southeast  Level FlightAware Approximate
Thu 08:51:00 AM -22.0527 -48.3072 129° Southeast  Level FlightAware Approximate
Thu 08:52:00 AM -22.1338 -48.1910 126° Southeast  Level FlightAware Approximate
Thu 08:53:00 AM -22.2203 -48.0797 137° Southeast  Level FlightAware Approximate
Thu 08:54:00 AM -22.3057 -47.9672 128° Southeast  Level FlightAware Approximate
Thu 08:55:00 AM -22.3904 -47.8537 131° Southeast  Level FlightAware Approximate
Thu 08:56:00 AM -22.4787 -47.7434 131° Southeast  Level FlightAware Approximate
Thu 08:57:00 AM -22.5669 -47.6329 128° Southeast  Level FlightAware Approximate
Thu 08:58:00 AM -22.6495 -47.5174 128° Southeast  Level FlightAware Approximate
Thu 08:59:00 AM -22.7321 -47.4018 128° Southeast  Level FlightAware Approximate
Thu 09:00:00 AM -22.8172 -47.2883 129° Southeast  Level FlightAware Approximate
Thu 09:01:00 AM -22.9023 -47.1748 129° Southeast  Level FlightAware Approximate
Thu 09:02:00 AM -22.9875 -47.0612 129° Southeast  Level FlightAware Approximate
Thu 09:03:00 AM -23.0720 -46.9470 128° Southeast  Level FlightAware Approximate
Thu 09:04:00 AM -23.1556 -46.8319 128° Southeast  Level FlightAware Approximate
Thu 09:05:00 AM -23.2379 -46.7170 122° Southeast  Level FlightAware Approximate
Thu 09:06:00 AM -23.3175 -46.5989 129° Southeast  Level FlightAware Approximate
Thu 09:07:00 AM -23.4028 -46.4851 129° Southeast  Level FlightAware Approximate
Thu 09:08:00 AM -23.4167 -46.4667 129° Southeast  Level FlightAware Approximate
Thu 09:09:00 AM -23.4321 -46.4695 129° Southeast  Level Estimated
Thu 09:10:00 AM -23.4321 -46.4695 129° Southeast  Level Estimated
Thu 09:11:00 AM -23.4321 -46.4695 129° Southeast  Level Estimated

Login

Don't have an account? Register now (free) for customized features, flight alerts, and more!